createdAt,value
2024-04-12T00:02:05.586Z,32.47
2024-04-12T00:04:36.452Z,32.49
2024-04-12T00:07:14.625Z,32.56
2024-04-12T00:09:42.929Z,32.49
2024-04-12T00:12:13.113Z,32.64
2024-04-12T00:14:44.993Z,32.53
2024-04-12T00:17:18.015Z,32.56
2024-04-12T00:19:46.879Z,32.35
2024-04-12T00:22:15.546Z,32.43
2024-04-12T00:24:43.955Z,32.39
2024-04-12T00:27:16.371Z,32.41
2024-04-12T00:29:47.193Z,32.56
2024-04-12T00:32:17.397Z,32.44
2024-04-12T00:34:49.378Z,32.53
2024-04-12T00:37:18.724Z,32.30
2024-04-12T00:39:50.971Z,32.16
2024-04-12T00:42:29.693Z,32.48
2024-04-12T00:44:59.260Z,32.51
2024-04-12T00:47:33.043Z,32.35
2024-04-12T00:50:01.974Z,32.60
2024-04-12T00:52:34.058Z,32.43
2024-04-12T00:55:07.884Z,32.20
2024-04-12T00:57:41.906Z,32.41
2024-04-12T01:00:11.798Z,32.27
2024-04-12T01:02:41.799Z,32.24
2024-04-12T01:05:18.217Z,32.12
2024-04-12T01:07:51.097Z,32.32
2024-04-12T01:10:28.248Z,32.23
2024-04-12T01:12:58.612Z,32.38
2024-04-12T01:15:33.479Z,32.24
2024-04-12T01:18:06.821Z,32.50
2024-04-12T01:20:36.267Z,32.30
2024-04-12T01:23:05.449Z,32.26
2024-04-12T01:25:35.410Z,32.30
2024-04-12T01:28:04.587Z,32.33
2024-04-12T01:30:35.139Z,32.20
2024-04-12T01:33:07.454Z,32.23
2024-04-12T01:35:35.606Z,32.09
2024-04-12T01:38:17.813Z,32.32
2024-04-12T01:40:47.204Z,32.36
2024-04-12T01:43:19.286Z,32.36
2024-04-12T01:45:47.170Z,32.19
2024-04-12T01:48:15.846Z,32.31
2024-04-12T01:50:43.968Z,32.10
2024-04-12T01:53:12.333Z,32.22
2024-04-12T01:55:41.256Z,32.19
2024-04-12T01:58:11.830Z,32.14
2024-04-12T02:00:41.272Z,32.03
2024-04-12T02:03:11.697Z,32.15
2024-04-12T02:05:40.103Z,32.14
2024-04-12T02:08:18.474Z,32.34
2024-04-12T02:10:49.555Z,32.07
2024-04-12T02:13:24.885Z,32.02
2024-04-12T02:15:54.633Z,32.02
2024-04-12T02:18:23.237Z,31.90
2024-04-12T02:20:53.734Z,32.03
2024-04-12T02:23:23.391Z,32.01
2024-04-12T02:25:52.341Z,32.20
2024-04-12T02:28:20.642Z,32.19
2024-04-12T02:30:58.264Z,31.98
2024-04-12T02:33:28.990Z,31.97
2024-04-12T02:36:00.793Z,32.08
2024-04-12T02:38:29.535Z,32.05
2024-04-12T02:41:00.091Z,32.12
2024-04-12T02:43:30.362Z,32.19
2024-04-12T02:45:59.741Z,31.92
2024-04-12T02:48:29.411Z,31.86
2024-04-12T02:51:04.233Z,31.94
2024-04-12T02:53:32.618Z,31.92
2024-04-12T02:56:10.067Z,32.11
2024-04-12T02:58:41.332Z,32.11
2024-04-12T03:01:19.483Z,31.96
2024-04-12T03:03:49.137Z,31.93
2024-04-12T03:06:21.039Z,32.20
2024-04-12T03:08:49.272Z,31.89
2024-04-12T03:11:30.072Z,31.86
2024-04-12T03:14:00.712Z,31.90
2024-04-12T03:16:29.519Z,31.93
2024-04-12T03:18:58.202Z,32.07
2024-04-12T03:21:31.390Z,31.88
2024-04-12T03:23:59.408Z,31.80
2024-04-12T03:26:27.852Z,31.89
2024-04-12T03:28:56.238Z,31.84
2024-04-12T03:31:28.113Z,31.89
2024-04-12T03:33:57.109Z,32.14
2024-04-12T03:36:40.870Z,31.91
2024-04-12T03:39:23.965Z,32.07
2024-04-12T03:42:07.577Z,31.96
2024-04-12T03:44:37.522Z,32.08
2024-04-12T03:47:10.106Z,31.96
2024-04-12T03:49:40.711Z,31.92
2024-04-12T03:52:16.820Z,31.93
2024-04-12T03:54:49.707Z,31.97
2024-04-12T03:57:18.450Z,31.90
2024-04-12T03:59:47.332Z,31.95
2024-04-12T04:02:16.629Z,31.85
2024-04-12T04:04:45.676Z,31.82
2024-04-12T04:07:17.519Z,32.00
2024-04-12T04:09:46.350Z,31.79
2024-04-12T04:12:18.210Z,32.06
2024-04-12T04:14:51.110Z,31.87
2024-04-12T04:17:30.229Z,32.12
2024-04-12T04:19:58.541Z,31.52
2024-04-12T04:22:32.258Z,31.30
2024-04-12T04:25:00.849Z,31.08
2024-04-12T04:27:28.799Z,30.91
2024-04-12T04:29:57.215Z,30.91
2024-04-12T04:32:27.382Z,30.89
2024-04-12T04:34:56.483Z,30.95
2024-04-12T04:37:33.540Z,30.87
2024-04-12T04:40:09.973Z,31.00
2024-04-12T04:42:38.867Z,31.02
2024-04-12T04:45:18.670Z,30.73
2024-04-12T04:47:46.966Z,30.79
2024-04-12T04:50:15.435Z,31.14
2024-04-12T04:52:43.412Z,31.14
2024-04-12T04:55:14.534Z,31.26
2024-04-12T04:57:45.423Z,31.79
2024-04-12T05:00:19.960Z,31.75
2024-04-12T05:02:51.999Z,31.80
2024-04-12T05:05:29.466Z,31.92
2024-04-12T05:07:59.129Z,31.92
2024-04-12T05:10:34.654Z,32.10
2024-04-12T05:13:04.875Z,31.84
2024-04-12T05:15:41.937Z,31.96
2024-04-12T05:18:13.887Z,32.06
2024-04-12T05:20:43.557Z,32.37
2024-04-12T05:23:22.058Z,32.65
2024-04-12T05:25:51.418Z,32.68
2024-04-12T05:28:20.177Z,32.33
2024-04-12T05:30:52.515Z,32.47
2024-04-12T05:33:24.167Z,32.70
2024-04-12T05:35:53.610Z,32.30
2024-04-12T05:38:25.655Z,32.07
2024-04-12T05:40:55.100Z,32.08
2024-04-12T05:43:23.986Z,32.12
2024-04-12T05:45:52.557Z,31.88
2024-04-12T05:48:22.564Z,31.80
2024-04-12T05:50:51.434Z,31.69
2024-04-12T05:53:21.944Z,31.76
2024-04-12T05:56:12.758Z,31.89
2024-04-12T05:58:43.848Z,31.98
2024-04-12T06:01:12.387Z,31.68
2024-04-12T06:03:55.842Z,31.54
2024-04-12T06:06:25.416Z,31.54
2024-04-12T06:08:54.909Z,31.48
2024-04-12T06:11:23.976Z,31.68
2024-04-12T06:13:55.507Z,31.72
2024-04-12T06:16:24.436Z,31.86
2024-04-12T06:18:52.869Z,32.03
2024-04-12T06:21:20.868Z,32.22
2024-04-12T06:23:56.023Z,32.30
2024-04-12T06:26:24.097Z,32.18
2024-04-12T06:28:58.610Z,32.26
2024-04-12T06:31:35.428Z,32.25
2024-04-12T06:34:07.657Z,32.32
2024-04-12T06:36:36.174Z,32.41
2024-04-12T06:39:07.878Z,32.58
2024-04-12T06:41:36.092Z,32.62
2024-04-12T06:44:04.551Z,32.63
2024-04-12T06:46:36.963Z,32.71
2024-04-12T06:49:11.106Z,32.85
2024-04-12T06:51:57.294Z,32.86
2024-04-12T06:54:25.642Z,32.99
2024-04-12T06:56:53.766Z,33.10
2024-04-12T06:59:27.333Z,33.09
2024-04-12T07:01:55.608Z,33.03
2024-04-12T07:04:23.712Z,33.18
2024-04-12T07:06:52.302Z,32.99
2024-04-12T07:09:23.944Z,33.05
2024-04-12T07:11:55.229Z,33.14
2024-04-12T07:14:23.747Z,33.21
2024-04-12T07:16:51.775Z,33.28
2024-04-12T07:19:24.217Z,33.59
2024-04-12T07:21:55.568Z,33.40
2024-04-12T07:24:23.765Z,33.64
2024-04-12T07:26:51.758Z,33.77
2024-04-12T07:29:23.040Z,33.74
2024-04-12T07:31:54.796Z,33.71
2024-04-12T07:34:22.708Z,33.74
2024-04-12T07:36:53.471Z,32.48
2024-04-12T07:39:24.723Z,32.40
2024-04-12T07:41:53.101Z,32.06
2024-04-12T07:44:25.254Z,31.87
2024-04-12T07:46:55.483Z,31.79
2024-04-12T07:49:25.587Z,32.07
2024-04-12T07:51:53.516Z,32.06
2024-04-12T07:54:22.118Z,32.02
2024-04-12T07:57:08.698Z,32.13
2024-04-12T07:59:39.946Z,32.38
2024-04-12T08:02:11.075Z,32.30
2024-04-12T08:04:46.977Z,32.13
2024-04-12T08:07:15.160Z,32.25
2024-04-12T08:09:47.243Z,32.52
2024-04-12T08:12:35.479Z,32.91
2024-04-12T08:15:17.849Z,33.30
2024-04-12T08:17:50.270Z,33.71
2024-04-12T08:20:26.372Z,33.72
2024-04-12T08:22:54.344Z,33.68
2024-04-12T08:25:27.992Z,33.71
2024-04-12T08:27:56.202Z,33.45
2024-04-12T08:30:24.523Z,33.29
2024-04-12T08:32:52.830Z,33.40
2024-04-12T08:35:21.423Z,33.34
2024-04-12T08:37:54.822Z,33.13
2024-04-12T08:40:26.210Z,33.36
2024-04-12T08:42:55.135Z,33.91
2024-04-12T08:45:24.888Z,34.03
2024-04-12T08:47:53.131Z,34.30
2024-04-12T08:50:25.420Z,34.11
2024-04-12T08:52:54.863Z,33.99
2024-04-12T08:55:25.256Z,35.55
2024-04-12T08:57:58.252Z,35.86
2024-04-12T09:00:32.988Z,35.49
2024-04-12T09:03:25.938Z,34.97
2024-04-12T09:05:54.481Z,34.20
2024-04-12T09:08:31.907Z,33.35
2024-04-12T09:11:04.923Z,33.45
2024-04-12T09:13:35.879Z,33.71
2024-04-12T09:16:07.932Z,32.82
2024-04-12T09:18:45.992Z,32.25
2024-04-12T09:21:37.549Z,31.52
2024-04-12T09:24:10.897Z,31.66
2024-04-12T09:26:56.169Z,32.03
2024-04-12T09:29:28.439Z,32.11
2024-04-12T09:32:18.100Z,32.08
2024-04-12T09:34:56.802Z,32.39
2024-04-12T09:37:39.522Z,32.26
2024-04-12T09:40:13.543Z,32.34
2024-04-12T09:42:56.415Z,32.57
2024-04-12T09:45:46.437Z,32.47
2024-04-12T09:48:33.018Z,32.55
2024-04-12T09:51:19.531Z,32.30
2024-04-12T09:54:06.174Z,32.57
2024-04-12T09:56:52.463Z,32.34
2024-04-12T09:59:46.578Z,32.19
2024-04-12T10:02:36.022Z,32.59
2024-04-12T10:05:27.377Z,33.41
2024-04-12T10:08:25.835Z,33.28
2024-04-12T10:11:12.325Z,32.98
2024-04-12T10:13:58.750Z,33.64
2024-04-12T10:16:44.991Z,33.82
2024-04-12T10:19:32.449Z,33.93
2024-04-12T10:22:32.109Z,34.05
2024-04-12T10:25:21.914Z,34.20
2024-04-12T10:28:09.162Z,33.74
2024-04-12T10:31:04.868Z,33.87
2024-04-12T10:34:04.044Z,33.51
2024-04-12T10:36:50.815Z,33.71
2024-04-12T10:39:20.102Z,33.67
2024-04-12T10:41:48.331Z,34.04
2024-04-12T10:44:17.655Z,34.45
2024-04-12T10:46:48.578Z,34.48
2024-04-12T10:49:17.037Z,34.42
2024-04-12T10:51:44.981Z,34.11
2024-04-12T10:54:15.354Z,34.45
2024-04-12T10:56:49.432Z,33.84
2024-04-12T10:59:29.467Z,33.36
2024-04-12T11:01:58.267Z,33.28
2024-04-12T11:04:29.744Z,33.25
2024-04-12T11:06:58.153Z,33.53
2024-04-12T11:09:31.503Z,33.13
2024-04-12T11:12:10.678Z,33.32
2024-04-12T11:14:39.585Z,33.20
2024-04-12T11:17:27.089Z,33.67
2024-04-12T11:20:14.889Z,33.79
2024-04-12T11:23:01.450Z,33.93
2024-04-12T11:25:48.089Z,33.93
2024-04-12T11:28:34.295Z,34.00
2024-04-12T11:31:08.743Z,34.01
2024-04-12T11:33:45.495Z,34.07
2024-04-12T11:36:21.380Z,33.99
2024-04-12T11:38:54.120Z,34.03
2024-04-12T11:41:25.542Z,33.94
2024-04-12T11:43:55.895Z,34.06
2024-04-12T11:46:25.022Z,34.01
2024-04-12T11:48:57.575Z,33.95
2024-04-12T11:51:34.234Z,33.96
2024-04-12T11:54:02.308Z,34.03
2024-04-12T11:56:32.467Z,34.02
2024-04-12T11:59:01.928Z,34.04
2024-04-12T12:01:30.004Z,33.99
2024-04-12T12:03:59.565Z,33.98
2024-04-12T12:06:27.603Z,34.10
2024-04-12T12:08:58.505Z,34.03
2024-04-12T12:11:28.980Z,34.12
2024-04-12T12:13:56.974Z,34.20
2024-04-12T12:16:26.686Z,34.21
2024-04-12T12:18:54.837Z,34.18
2024-04-12T12:21:24.166Z,34.30
2024-04-12T12:23:52.223Z,34.22
2024-04-12T12:26:21.875Z,34.22
2024-04-12T12:28:51.384Z,34.22
2024-04-12T12:31:19.496Z,34.30
2024-04-12T12:33:48.879Z,34.23
2024-04-12T12:36:18.242Z,34.23
2024-04-12T12:38:46.292Z,34.14
2024-04-12T12:41:14.917Z,34.25
2024-04-12T12:43:46.297Z,34.18
2024-04-12T12:46:16.623Z,34.25
2024-04-12T12:48:44.810Z,34.13
2024-04-12T12:51:13.766Z,34.30
2024-04-12T12:53:44.830Z,34.20
2024-04-12T12:56:14.173Z,34.17
2024-04-12T12:58:42.176Z,34.15
2024-04-12T13:01:10.324Z,34.24
2024-04-12T13:03:38.523Z,34.11
2024-04-12T13:06:09.763Z,34.15
2024-04-12T13:08:38.955Z,34.23
2024-04-12T13:11:10.392Z,34.15
2024-04-12T13:13:41.852Z,34.15
2024-04-12T13:16:13.164Z,34.15
2024-04-12T13:18:44.681Z,34.32
2024-04-12T13:21:13.665Z,34.37
2024-04-12T13:23:43.104Z,34.17
2024-04-12T13:26:23.917Z,34.36
2024-04-12T13:28:53.518Z,34.28
2024-04-12T13:31:24.564Z,34.17
2024-04-12T13:33:56.213Z,34.29
2024-04-12T13:36:24.939Z,34.18
2024-04-12T13:38:56.782Z,34.25
2024-04-12T13:41:24.831Z,34.24
2024-04-12T13:43:53.005Z,34.31
2024-04-12T13:46:42.768Z,34.15
2024-04-12T13:49:31.116Z,34.17
2024-04-12T13:52:02.009Z,34.23
2024-04-12T13:54:31.920Z,34.13
2024-04-12T13:57:03.656Z,34.27
2024-04-12T13:59:34.866Z,34.14
2024-04-12T14:02:05.343Z,34.14
2024-04-12T14:04:39.824Z,34.21
2024-04-12T14:07:10.345Z,34.23
2024-04-12T14:09:38.354Z,34.21
2024-04-12T14:12:06.364Z,34.09
2024-04-12T14:14:34.400Z,34.06
2024-04-12T14:17:06.292Z,34.12
2024-04-12T14:19:34.416Z,34.17
2024-04-12T14:22:04.528Z,34.11
2024-04-12T14:24:50.826Z,34.25
2024-04-12T14:27:24.156Z,34.12
2024-04-12T14:29:53.676Z,34.15
2024-04-12T14:32:23.902Z,34.13
2024-04-12T14:34:58.420Z,34.07
2024-04-12T14:37:34.351Z,34.04
2024-04-12T14:40:07.542Z,34.06
2024-04-12T14:42:36.230Z,34.06
2024-04-12T14:45:07.562Z,34.11
2024-04-12T14:47:35.831Z,34.19
2024-04-12T14:50:08.487Z,34.24
2024-04-12T14:52:36.581Z,34.11
2024-04-12T14:55:05.361Z,34.13
2024-04-12T14:57:33.255Z,34.17
2024-04-12T15:00:01.513Z,34.06
2024-04-12T15:02:29.936Z,34.23
2024-04-12T15:05:16.466Z,34.26
2024-04-12T15:08:03.164Z,34.13
2024-04-12T15:10:50.250Z,34.19
2024-04-12T15:13:36.570Z,34.23
2024-04-12T15:16:23.309Z,34.37
2024-04-12T15:19:11.486Z,34.17
2024-04-12T15:21:58.080Z,34.32
2024-04-12T15:24:44.705Z,34.34
2024-04-12T15:27:31.390Z,34.51
2024-04-12T15:30:18.190Z,34.33
2024-04-12T15:33:04.710Z,34.44
2024-04-12T15:35:51.286Z,34.38
2024-04-12T15:38:37.833Z,34.40
2024-04-12T15:41:24.253Z,34.39
2024-04-12T15:44:10.889Z,34.47
2024-04-12T15:46:57.397Z,34.37
2024-04-12T15:49:36.047Z,34.54
2024-04-12T15:52:13.884Z,34.42
2024-04-12T15:54:56.153Z,34.46
2024-04-12T15:57:42.672Z,34.54
2024-04-12T16:00:29.858Z,34.56
2024-04-12T16:03:16.400Z,34.54
2024-04-12T16:06:03.128Z,34.67
2024-04-12T16:08:49.460Z,34.73
2024-04-12T16:11:17.568Z,34.66
2024-04-12T16:13:45.706Z,34.65
2024-04-12T16:16:13.737Z,34.54
2024-04-12T16:18:41.718Z,34.62
2024-04-12T16:21:09.918Z,34.72
2024-04-12T16:23:37.833Z,34.73
2024-04-12T16:26:05.984Z,34.75
2024-04-12T16:28:34.532Z,34.55
2024-04-12T16:31:05.796Z,34.63
2024-04-12T16:33:35.546Z,34.51
2024-04-12T16:36:04.459Z,34.59
2024-04-12T16:38:34.482Z,34.72
2024-04-12T16:41:03.980Z,34.72
2024-04-12T16:43:33.697Z,34.48
2024-04-12T16:46:02.355Z,34.67
2024-04-12T16:48:30.539Z,34.62
2024-04-12T16:50:58.601Z,34.79
2024-04-12T16:53:26.791Z,34.65
2024-04-12T16:55:54.747Z,34.65
2024-04-12T16:58:22.681Z,34.68
2024-04-12T17:00:50.770Z,34.75
2024-04-12T17:03:19.003Z,34.78
2024-04-12T17:05:47.618Z,34.74
2024-04-12T17:08:15.780Z,34.66
2024-04-12T17:10:43.963Z,34.77
2024-04-12T17:13:11.915Z,34.84
2024-04-12T17:15:41.939Z,34.83
2024-04-12T17:18:10.295Z,34.80
2024-04-12T17:20:38.530Z,34.88
2024-04-12T17:23:10.254Z,34.84
2024-04-12T17:25:38.867Z,35.04
2024-04-12T17:28:08.479Z,34.75
2024-04-12T17:30:36.572Z,34.95
2024-04-12T17:33:05.244Z,34.98
2024-04-12T17:35:33.351Z,34.86
2024-04-12T17:38:01.284Z,34.88
2024-04-12T17:40:29.377Z,35.02
2024-04-12T17:42:57.314Z,34.98
2024-04-12T17:45:26.584Z,35.03
2024-04-12T17:47:55.604Z,34.93
2024-04-12T17:50:25.093Z,35.04
2024-04-12T17:52:53.953Z,35.01
2024-04-12T17:55:21.890Z,34.96
2024-04-12T17:57:50.664Z,35.01
2024-04-12T18:00:19.264Z,35.02
2024-04-12T18:02:49.923Z,34.94
2024-04-12T18:05:18.387Z,34.97
2024-04-12T18:07:47.559Z,34.91
2024-04-12T18:10:15.756Z,35.04
2024-04-12T18:12:44.814Z,35.01
2024-04-12T18:15:13.034Z,34.92
2024-04-12T18:17:41.264Z,35.04
2024-04-12T18:20:12.215Z,34.88
2024-04-12T18:22:42.960Z,35.02
2024-04-12T18:25:13.820Z,34.99
2024-04-12T18:27:41.748Z,35.16
2024-04-12T18:30:10.986Z,35.03
2024-04-12T18:32:39.192Z,35.08
2024-04-12T18:35:10.242Z,35.03
2024-04-12T18:37:57.973Z,34.91
2024-04-12T18:40:44.440Z,34.97
2024-04-12T18:43:31.346Z,35.11
2024-04-12T18:46:02.185Z,35.05
2024-04-12T18:48:30.249Z,35.12
2024-04-12T18:50:58.330Z,35.05
2024-04-12T18:53:26.483Z,34.92
2024-04-12T18:55:54.667Z,35.04
2024-04-12T18:58:22.542Z,35.07
2024-04-12T19:00:50.797Z,35.01
2024-04-12T19:03:18.824Z,35.21
2024-04-12T19:05:47.011Z,35.10
2024-04-12T19:08:14.979Z,34.99
2024-04-12T19:10:43.016Z,35.04
2024-04-12T19:13:11.158Z,35.02
2024-04-12T19:15:39.921Z,35.03
2024-04-12T19:18:10.993Z,35.02
2024-04-12T19:20:43.074Z,35.06
2024-04-12T19:23:11.946Z,34.96
2024-04-12T19:25:39.957Z,34.97
2024-04-12T19:28:09.108Z,34.87
2024-04-12T19:30:37.799Z,35.02
2024-04-12T19:33:05.803Z,34.89
2024-04-12T19:35:33.839Z,35.06
2024-04-12T19:38:04.477Z,34.86
2024-04-12T19:40:32.418Z,34.87
2024-04-12T19:43:00.453Z,34.72
2024-04-12T19:45:28.628Z,34.76
2024-04-12T19:47:56.734Z,34.90
2024-04-12T19:50:24.823Z,34.97
2024-04-12T19:52:56.175Z,34.86
2024-04-12T19:55:26.118Z,34.82
2024-04-12T19:57:54.036Z,34.64
2024-04-12T20:00:22.243Z,35.02
2024-04-12T20:02:51.338Z,34.90
2024-04-12T20:05:19.345Z,34.77
2024-04-12T20:07:47.462Z,35.01
2024-04-12T20:10:15.550Z,34.84
2024-04-12T20:12:43.871Z,34.81
2024-04-12T20:15:14.638Z,34.94
2024-04-12T20:17:42.741Z,34.71
2024-04-12T20:20:10.957Z,34.85
2024-04-12T20:22:42.640Z,34.76
2024-04-12T20:25:16.189Z,34.88
2024-04-12T20:27:44.536Z,34.89
2024-04-12T20:30:31.334Z,34.76
2024-04-12T20:33:09.387Z,34.78
2024-04-12T20:35:48.992Z,34.81
2024-04-12T20:38:17.061Z,34.83
2024-04-12T20:40:45.087Z,34.88
2024-04-12T20:43:13.067Z,34.96
2024-04-12T20:45:45.002Z,34.93
2024-04-12T20:48:13.191Z,34.73
2024-04-12T20:50:41.145Z,34.85
2024-04-12T20:53:09.079Z,34.96
2024-04-12T20:55:37.029Z,34.72
2024-04-12T20:58:05.016Z,34.94
2024-04-12T21:00:33.243Z,34.87
2024-04-12T21:03:01.227Z,34.97
2024-04-12T21:05:29.979Z,34.97
2024-04-12T21:08:00.685Z,34.93
2024-04-12T21:10:28.838Z,35.06
2024-04-12T21:12:57.006Z,34.99
2024-04-12T21:15:25.071Z,35.09
2024-04-12T21:17:53.015Z,35.12
2024-04-12T21:20:21.043Z,35.09
2024-04-12T21:22:48.982Z,34.98
2024-04-12T21:25:17.040Z,34.93
2024-04-12T21:27:44.937Z,35.10
2024-04-12T21:30:13.126Z,35.07
2024-04-12T21:32:41.432Z,35.10
2024-04-12T21:35:09.503Z,35.04
2024-04-12T21:37:37.534Z,35.02
2024-04-12T21:40:06.125Z,35.23
2024-04-12T21:42:34.232Z,35.29
2024-04-12T21:45:02.399Z,35.21
2024-04-12T21:47:30.738Z,35.23
2024-04-12T21:49:59.689Z,35.06
2024-04-12T21:52:27.632Z,35.21
2024-04-12T21:54:57.217Z,35.21
2024-04-12T21:57:26.579Z,34.99
2024-04-12T21:59:54.572Z,35.17
2024-04-12T22:02:23.521Z,35.22
2024-04-12T22:04:51.526Z,35.21
2024-04-12T22:07:19.496Z,35.24
2024-04-12T22:09:49.607Z,35.10
2024-04-12T22:12:17.695Z,35.15
2024-04-12T22:14:46.499Z,35.32
2024-04-12T22:17:15.818Z,35.32
2024-04-12T22:19:48.599Z,35.21
2024-04-12T22:22:16.630Z,35.20
2024-04-12T22:24:44.823Z,35.18
2024-04-12T22:27:12.941Z,35.09
2024-04-12T22:29:41.045Z,35.06
2024-04-12T22:32:09.063Z,35.21
2024-04-12T22:34:37.017Z,35.05
2024-04-12T22:37:04.921Z,35.22
2024-04-12T22:39:32.996Z,35.30
2024-04-12T22:42:00.995Z,35.39
2024-04-12T22:44:29.067Z,35.31
2024-04-12T22:46:58.505Z,35.18
2024-04-12T22:49:26.578Z,35.21
2024-04-12T22:51:55.322Z,35.18
2024-04-12T22:54:23.336Z,35.16
2024-04-12T22:56:51.400Z,35.34
2024-04-12T22:59:19.401Z,35.28
2024-04-12T23:01:47.431Z,35.16
2024-04-12T23:04:16.504Z,35.29
2024-04-12T23:06:44.450Z,35.16
2024-04-12T23:09:12.450Z,35.32
2024-04-12T23:11:40.757Z,35.35
2024-04-12T23:14:08.796Z,35.19
2024-04-12T23:16:37.165Z,35.30
2024-04-12T23:19:05.964Z,35.35
2024-04-12T23:21:33.922Z,35.27
2024-04-12T23:24:02.013Z,35.15
2024-04-12T23:26:29.943Z,35.21
2024-04-12T23:28:58.616Z,35.33
2024-04-12T23:31:26.657Z,35.19
2024-04-12T23:33:54.520Z,35.23
2024-04-12T23:36:22.546Z,35.10
2024-04-12T23:38:50.506Z,35.20
2024-04-12T23:41:18.436Z,35.27
2024-04-12T23:43:47.962Z,35.29
2024-04-12T23:46:17.420Z,35.17
2024-04-12T23:48:45.699Z,35.30
2024-04-12T23:51:13.925Z,35.29
2024-04-12T23:53:42.550Z,35.50
2024-04-12T23:56:10.607Z,35.09
2024-04-12T23:58:38.594Z,35.24
